Time;durP1;ratioP1;P1;durP2;ratioP2;P2;SDS_P1;SDS_P2;PMS_P1;PMS_P2;Temp;Humidity;BMP_temperature;BMP_pressure;BME280_temperature;BME280_humidity;BME280_pressure;Samples;Min_cycle;Max_cycle;Signal;HPM_P1;HPM_P2
2023/06/05 00:01:37;;;;;;;4.15;1.90;;;12.40;99.90;;;;;;4960481;28;20050;-35
2023/06/05 00:04:03;;;;;;;5.53;2.10;;;12.40;99.90;;;;;;4962968;28;20150;-35
2023/06/05 00:06:30;;;;;;;4.43;2.38;;;12.30;99.90;;;;;;4964956;28;20070;-35
2023/06/05 00:08:56;;;;;;;5.00;2.80;;;12.30;99.90;;;;;;4955614;28;20040;-35
2023/06/05 00:11:22;;;;;;;3.60;2.13;;;12.30;99.90;;;;;;4957663;28;20626;-35
2023/06/05 00:13:49;;;;;;;4.22;2.20;;;12.30;99.90;;;;;;4960019;28;20146;-36
2023/06/05 00:16:15;;;;;;;5.47;2.28;;;12.20;99.90;;;;;;4963558;28;20073;-35
2023/06/05 00:18:43;;;;;;;5.15;2.42;;;12.20;99.90;;;;;;4957721;28;20051;-35
2023/06/05 00:21:09;;;;;;;5.97;2.50;;;12.20;99.90;;;;;;4958794;28;20174;-35
2023/06/05 00:23:35;;;;;;;6.57;2.28;;;12.20;99.90;;;;;;4958251;28;20047;-35
2023/06/05 00:26:01;;;;;;;7.32;2.70;;;12.20;99.90;;;;;;4958336;28;20074;-35
2023/06/05 00:28:27;;;;;;;5.43;2.22;;;12.10;99.90;;;;;;4956597;28;20051;-35
2023/06/05 00:30:53;;;;;;;4.32;2.00;;;12.10;99.90;;;;;;4959672;28;20050;-35
2023/06/05 00:33:19;;;;;;;5.13;1.90;;;12.10;99.90;;;;;;4954655;28;20563;-35
2023/06/05 00:35:44;;;;;;;4.68;2.33;;;12.00;99.90;;;;;;4957778;28;20051;-36
2023/06/05 00:38:10;;;;;;;4.38;2.60;;;12.00;99.90;;;;;;4958011;28;20042;-35
2023/06/05 00:40:36;;;;;;;5.93;2.20;;;11.90;99.90;;;;;;4959878;28;20051;-36
2023/06/05 00:43:02;;;;;;;6.53;1.95;;;11.90;99.90;;;;;;4958652;28;20050;-35
2023/06/05 00:45:28;;;;;;;6.00;2.03;;;11.90;99.90;;;;;;4955097;28;20061;-35
2023/06/05 00:47:54;;;;;;;6.65;2.65;;;11.90;99.90;;;;;;4954931;28;20424;-35
2023/06/05 00:50:23;;;;;;;2.90;1.88;;;11.80;99.90;;;;;;4960184;28;20047;-35
2023/06/05 00:52:50;;;;;;;3.92;2.28;;;11.80;99.90;;;;;;4959948;28;20070;-36
2023/06/05 00:55:16;;;;;;;5.18;2.50;;;11.80;99.90;;;;;;4950120;28;20095;-35
2023/06/05 00:57:44;;;;;;;8.38;2.42;;;11.80;99.90;;;;;;4956879;28;20497;-35
2023/06/05 01:00:12;;;;;;;5.85;2.70;;;11.70;99.90;;;;;;4959813;28;20043;-35
2023/06/05 01:02:39;;;;;;;3.97;2.20;;;11.70;99.90;;;;;;4957041;28;20539;-35
2023/06/05 01:05:05;;;;;;;7.25;2.30;;;11.70;99.90;;;;;;4959461;28;20173;-35
2023/06/05 01:07:39;;;;;;;5.93;2.45;;;11.70;99.90;;;;;;4958061;28;20047;-35
2023/06/05 01:10:08;;;;;;;5.25;2.50;;;11.60;99.90;;;;;;4954058;28;20409;-35
2023/06/05 01:12:43;;;;;;;4.30;2.20;;;11.60;99.90;;;;;;4958833;28;20062;-35
2023/06/05 01:15:09;;;;;;;5.80;2.47;;;11.60;99.90;;;;;;4960975;28;20520;-35
2023/06/05 01:17:36;;;;;;;8.05;2.42;;;11.60;99.90;;;;;;4956976;28;20142;-35
2023/06/05 01:20:04;;;;;;;7.43;3.00;;;11.50;99.90;;;;;;4958422;28;20162;-35
2023/06/05 01:22:30;;;;;;;6.05;2.80;;;11.50;99.90;;;;;;4957126;28;20058;-35
2023/06/05 01:24:57;;;;;;;7.70;3.08;;;11.50;99.90;;;;;;4959026;28;20046;-35
2023/06/05 01:27:52;;;;;;;5.05;2.47;;;11.40;99.90;;;;;;4958396;28;20537;-35
2023/06/05 01:30:40;;;;;;;7.88;2.42;;;11.40;99.90;;;;;;4959027;28;20050;-35
2023/06/05 01:33:43;;;;;;;4.82;2.50;;;11.40;99.90;;;;;;4955460;28;20050;-35
2023/06/05 01:36:13;;;;;;;5.00;2.40;;;11.40;99.90;;;;;;4911835;28;20050;-35
2023/06/05 01:38:41;;;;;;;4.68;2.33;;;11.40;99.90;;;;;;4953629;28;20054;-35
2023/06/05 01:41:08;;;;;;;4.78;2.10;;;11.40;99.90;;;;;;4958238;28;20043;-35
2023/06/05 01:43:35;;;;;;;7.03;2.60;;;11.30;99.90;;;;;;4951907;28;20057;-35
2023/06/05 01:46:01;;;;;;;5.22;2.00;;;11.30;99.90;;;;;;4958990;28;20508;-35
2023/06/05 01:48:30;;;;;;;4.88;2.42;;;11.30;99.90;;;;;;4953656;28;20058;-35
2023/06/05 01:50:59;;;;;;;4.03;2.15;;;11.30;99.90;;;;;;4962337;28;20035;-35
2023/06/05 01:53:27;;;;;;;7.30;3.17;;;11.30;99.90;;;;;;4963256;28;20062;-35
2023/06/05 01:55:53;;;;;;;5.35;2.67;;;11.30;99.90;;;;;;4954294;28;20155;-35
2023/06/05 01:58:21;;;;;;;7.07;3.25;;;11.30;99.90;;;;;;4954892;28;20061;-35
2023/06/05 02:00:46;;;;;;;8.15;2.80;;;11.20;99.90;;;;;;4937139;28;20055;-35
2023/06/05 02:03:15;;;;;;;6.15;2.83;;;11.20;99.90;;;;;;4961222;28;20062;-35
2023/06/05 02:05:41;;;;;;;7.35;3.00;;;11.20;99.90;;;;;;4962309;28;20045;-35
2023/06/05 02:08:09;;;;;;;5.68;2.90;;;11.20;99.90;;;;;;4955725;28;20426;-35
2023/06/05 02:10:37;;;;;;;6.28;2.65;;;11.10;99.90;;;;;;4954275;28;20050;-35
2023/06/05 02:13:03;;;;;;;4.82;2.72;;;11.10;99.90;;;;;;4963431;28;20054;-35
2023/06/05 02:15:31;;;;;;;4.78;2.83;;;11.10;99.90;;;;;;4965189;28;20169;-35
2023/06/05 02:17:57;;;;;;;5.03;2.75;;;11.10;99.90;;;;;;4957426;28;20074;-35
2023/06/05 02:20:27;;;;;;;7.78;2.92;;;11.00;99.90;;;;;;4960541;28;20472;-35
2023/06/05 02:22:54;;;;;;;5.55;3.00;;;11.00;99.90;;;;;;4959817;28;20081;-35
2023/06/05 02:25:20;;;;;;;5.93;2.70;;;11.00;99.90;;;;;;4937029;28;20527;-35
2023/06/05 02:27:46;;;;;;;4.55;2.92;;;10.90;99.90;;;;;;4958305;28;20055;-35
2023/06/05 02:30:12;;;;;;;5.97;3.05;;;10.90;99.90;;;;;;4958315;28;20451;-35
2023/06/05 02:32:44;;;;;;;6.88;2.95;;;10.90;99.90;;;;;;4953459;28;20051;-35
2023/06/05 02:35:13;;;;;;;6.53;3.30;;;10.90;99.90;;;;;;4953132;28;20058;-34
2023/06/05 02:37:46;;;;;;;6.65;3.40;;;10.90;99.90;;;;;;4958360;28;20098;-35
2023/06/05 02:40:13;;;;;;;5.80;2.85;;;10.90;99.90;;;;;;4955949;28;20131;-35
2023/06/05 02:42:40;;;;;;;8.27;3.22;;;11.00;99.90;;;;;;4961390;28;20496;-35
2023/06/05 02:45:07;;;;;;;5.35;2.90;;;10.90;99.90;;;;;;4945929;28;20518;-35
2023/06/05 02:47:33;;;;;;;5.78;3.10;;;11.00;99.90;;;;;;4962009;28;20142;-35
2023/06/05 02:49:59;;;;;;;5.70;3.25;;;10.90;99.90;;;;;;4960052;28;20138;-35
2023/06/05 02:52:25;;;;;;;6.55;2.97;;;10.90;99.90;;;;;;4957755;28;20055;-35
2023/06/05 02:54:51;;;;;;;5.03;2.85;;;10.90;99.90;;;;;;4964492;28;20467;-35
2023/06/05 02:57:17;;;;;;;6.47;3.10;;;10.80;99.90;;;;;;4956646;28;20058;-36
2023/06/05 02:59:43;;;;;;;9.40;3.28;;;10.80;99.90;;;;;;4956109;28;20088;-35
2023/06/05 03:02:10;;;;;;;6.78;3.05;;;10.80;99.90;;;;;;4957933;28;20059;-35
2023/06/05 03:04:39;;;;;;;7.80;3.15;;;10.80;99.90;;;;;;4958579;28;20138;-35
2023/06/05 03:07:04;;;;;;;5.47;2.92;;;10.80;99.90;;;;;;4964272;28;20074;-35
2023/06/05 03:09:31;;;;;;;7.05;3.17;;;10.80;99.90;;;;;;4955799;28;21287;-35
2023/06/05 03:11:57;;;;;;;7.70;2.83;;;10.80;99.90;;;;;;4952944;28;20117;-35
2023/06/05 03:14:23;;;;;;;6.75;2.95;;;10.70;99.90;;;;;;4959123;28;20121;-35
2023/06/05 03:16:50;;;;;;;6.65;3.17;;;;;;;;;;4960720;28;20074;-35
2023/06/05 03:19:16;;;;;;;4.75;2.80;;;;;;;;;;4958050;28;20515;-35
2023/06/05 03:21:43;;;;;;;4.13;2.53;;;;;;;;;;4961903;28;20086;-35
2023/06/05 03:24:12;;;;;;;8.85;3.60;;;10.50;99.90;;;;;;4944040;28;20138;-35
2023/06/05 03:26:40;;;;;;;6.18;3.38;;;10.40;99.90;;;;;;4956936;28;20051;-35
2023/06/05 03:29:06;;;;;;;8.73;3.40;;;10.40;99.90;;;;;;4953462;28;20055;-35
2023/06/05 03:31:32;;;;;;;6.63;3.00;;;10.50;99.90;;;;;;4961603;28;20051;-35
2023/06/05 03:33:59;;;;;;;8.05;3.38;;;10.50;99.90;;;;;;4958851;28;20057;-36
2023/06/05 03:36:25;;;;;;;7.85;3.10;;;10.50;99.90;;;;;;4961267;28;20174;-35
2023/06/05 03:38:51;;;;;;;7.32;3.10;;;10.50;99.90;;;;;;4965219;28;20067;-35
2023/06/05 03:41:17;;;;;;;7.72;3.88;;;10.40;99.90;;;;;;4961668;28;20046;-35
2023/06/05 03:43:42;;;;;;;7.88;3.90;;;10.40;99.90;;;;;;4955272;28;20402;-35
2023/06/05 03:46:10;;;;;;;12.00;4.35;;;10.40;99.90;;;;;;4960816;28;20054;-36
2023/06/05 03:48:36;;;;;;;10.45;4.25;;;10.40;99.90;;;;;;4960463;28;20053;-35
2023/06/05 03:51:01;;;;;;;12.52;4.60;;;10.40;99.90;;;;;;4959762;28;20043;-35
2023/06/05 03:53:29;;;;;;;11.88;5.15;;;10.40;99.90;;;;;;4955353;28;20132;-35
2023/06/05 03:55:56;;;;;;;9.15;4.32;;;10.40;99.90;;;;;;4959126;28;20205;-35
2023/06/05 03:58:23;;;;;;;10.40;3.50;;;10.40;99.90;;;;;;4963290;28;20054;-35
2023/06/05 04:00:49;;;;;;;9.55;4.40;;;10.50;99.90;;;;;;4939793;28;20930;-35
2023/06/05 04:03:15;;;;;;;8.25;4.10;;;10.50;99.90;;;;;;4963192;28;20109;-35
2023/06/05 04:05:41;;;;;;;9.50;4.30;;;10.50;99.90;;;;;;4962995;28;20150;-35
2023/06/05 04:08:10;;;;;;;11.00;3.95;;;10.50;99.90;;;;;;4964094;28;20069;-35
2023/06/05 04:10:36;;;;;;;9.80;3.90;;;10.50;99.90;;;;;;4962603;28;20059;-35
2023/06/05 04:13:02;;;;;;;11.80;4.75;;;10.50;99.90;;;;;;4961744;28;20489;-35
2023/06/05 04:15:29;;;;;;;11.45;4.35;;;10.50;99.90;;;;;;4959814;28;20563;-35
2023/06/05 04:17:55;;;;;;;10.75;3.50;;;10.60;99.90;;;;;;4959512;28;20555;-35
2023/06/05 04:20:21;;;;;;;10.70;4.05;;;10.60;99.90;;;;;;4963073;28;20710;-34
2023/06/05 04:22:47;;;;;;;12.15;4.38;;;10.70;99.90;;;;;;4957848;28;20051;-35
2023/06/05 04:25:13;;;;;;;11.63;4.72;;;10.60;99.90;;;;;;4963414;28;20042;-36
2023/06/05 04:27:40;;;;;;;11.15;4.47;;;10.60;99.90;;;;;;4965202;28;20653;-35
2023/06/05 04:30:08;;;;;;;9.57;3.10;;;10.70;99.90;;;;;;4956499;28;20081;-35
2023/06/05 04:32:37;;;;;;;8.85;3.55;;;10.70;99.90;;;;;;4959832;28;20142;-35
2023/06/05 04:35:08;;;;;;;7.13;3.40;;;10.80;99.90;;;;;;4962180;28;20141;-36
2023/06/05 04:37:35;;;;;;;8.93;3.83;;;10.80;99.90;;;;;;4963745;28;20062;-35
2023/06/05 04:40:05;;;;;;;11.27;4.03;;;10.90;99.90;;;;;;4955168;28;20054;-35
2023/06/05 04:42:32;;;;;;;9.52;3.72;;;10.90;99.90;;;;;;4967572;28;20065;-35
2023/06/05 04:45:01;;;;;;;11.77;4.03;;;10.90;99.90;;;;;;4960064;28;20047;-35
2023/06/05 04:47:27;;;;;;;7.47;3.45;;;11.00;99.90;;;;;;4960371;28;20060;-35
2023/06/05 04:49:54;;;;;;;9.43;3.95;;;11.00;99.90;;;;;;4958763;28;20504;-35
2023/06/05 04:52:20;;;;;;;7.15;3.60;;;11.00;99.90;;;;;;4959884;28;20065;-36
2023/06/05 04:54:47;;;;;;;7.65;3.58;;;11.10;99.90;;;;;;4963025;28;20061;-36
2023/06/05 04:57:12;;;;;;;6.75;3.67;;;11.10;99.90;;;;;;4960706;28;20401;-35
2023/06/05 04:59:38;;;;;;;9.98;3.53;;;11.20;99.90;;;;;;4956505;28;20054;-35
2023/06/05 05:02:04;;;;;;;8.40;3.42;;;11.20;99.90;;;;;;4952232;28;20063;-35
2023/06/05 05:04:29;;;;;;;9.65;4.07;;;11.30;99.90;;;;;;4957035;28;20494;-35
2023/06/05 05:07:00;;;;;;;7.82;3.58;;;11.40;99.90;;;;;;4941356;28;20066;-36
2023/06/05 05:09:35;;;;;;;8.10;3.25;;;11.40;99.90;;;;;;4957959;28;20077;-36
2023/06/05 05:12:01;;;;;;;7.65;3.83;;;11.50;99.90;;;;;;4957894;28;20512;-36
2023/06/05 05:14:27;;;;;;;6.72;3.65;;;11.50;99.90;;;;;;4959551;28;20078;-36
2023/06/05 05:16:54;;;;;;;9.43;3.85;;;11.60;99.90;;;;;;4960456;28;20053;-35
2023/06/05 05:19:21;;;;;;;8.55;3.42;;;11.60;99.90;;;;;;4956649;28;20054;-35
2023/06/05 05:21:47;;;;;;;10.38;3.70;;;11.60;99.90;;;;;;4954351;28;20055;-35
2023/06/05 05:24:13;;;;;;;9.57;3.83;;;11.70;99.90;;;;;;4939875;28;20075;-35
2023/06/05 05:26:39;;;;;;;7.28;3.22;;;11.80;99.90;;;;;;4955530;28;20055;-35
2023/06/05 05:29:06;;;;;;;12.30;3.42;;;11.90;99.90;;;;;;4955956;28;20063;-35
2023/06/05 05:31:31;;;;;;;6.55;3.05;;;11.90;99.90;;;;;;4955117;28;20055;-35
2023/06/05 05:33:58;;;;;;;7.38;3.33;;;12.00;99.90;;;;;;4952091;28;20137;-35
2023/06/05 05:36:25;;;;;;;12.63;4.30;;;12.00;99.90;;;;;;4937886;28;20144;-35
2023/06/05 05:38:51;;;;;;;7.20;3.33;;;12.10;99.90;;;;;;4955208;28;20055;-35
2023/06/05 05:41:16;;;;;;;11.73;4.13;;;12.10;99.90;;;;;;4958634;28;20054;-35
2023/06/05 05:43:42;;;;;;;7.38;3.70;;;12.20;99.90;;;;;;4956482;28;20051;-34
2023/06/05 05:46:07;;;;;;;6.28;3.50;;;12.30;99.90;;;;;;4954278;28;20058;-34
2023/06/05 05:48:37;;;;;;;6.47;3.80;;;12.30;99.90;;;;;;4957140;28;20061;-35
2023/06/05 05:51:02;;;;;;;6.18;3.15;;;12.40;99.90;;;;;;4955353;28;20055;-35
2023/06/05 05:53:28;;;;;;;6.28;3.15;;;12.50;99.90;;;;;;4954244;28;20609;-35
2023/06/05 05:55:54;;;;;;;8.15;3.80;;;12.50;99.90;;;;;;4954997;28;20061;-35
2023/06/05 05:58:20;;;;;;;7.82;3.30;;;12.60;99.90;;;;;;4957262;28;21533;-35
2023/06/05 06:00:47;;;;;;;8.52;2.97;;;12.70;99.90;;;;;;4952812;28;20476;-35
2023/06/05 06:03:14;;;;;;;7.22;3.80;;;12.80;99.90;;;;;;4938220;28;20066;-35
2023/06/05 06:05:40;;;;;;;6.32;3.00;;;12.90;99.90;;;;;;4952492;28;20413;-34
2023/06/05 06:08:06;;;;;;;6.43;2.90;;;13.00;99.90;;;;;;4948941;28;20465;-35
2023/06/05 06:10:32;;;;;;;5.82;2.88;;;13.00;99.90;;;;;;4934502;28;20082;-35
2023/06/05 06:12:58;;;;;;;5.57;2.60;;;13.10;99.90;;;;;;4952121;28;20046;-35
2023/06/05 06:15:24;;;;;;;5.88;3.33;;;13.10;99.90;;;;;;4955415;28;20055;-35
2023/06/05 06:17:50;;;;;;;5.72;2.63;;;13.10;99.90;;;;;;4949868;28;20042;-34
2023/06/05 06:20:15;;;;;;;11.15;3.63;;;13.20;99.90;;;;;;4953772;28;20054;-35
2023/06/05 06:22:42;;;;;;;4.78;2.58;;;13.20;99.90;;;;;;4954081;28;20567;-35
2023/06/05 06:25:12;;;;;;;4.72;2.78;;;13.30;99.90;;;;;;4951016;28;20054;-35
2023/06/05 06:27:38;;;;;;;4.25;2.60;;;13.40;99.90;;;;;;4953683;28;20070;-35
2023/06/05 06:30:05;;;;;;;4.60;2.45;;;13.50;99.90;;;;;;4953994;28;20051;-35
2023/06/05 06:32:31;;;;;;;6.05;2.45;;;13.50;99.90;;;;;;4935071;28;20050;-35
2023/06/05 06:34:57;;;;;;;6.65;2.78;;;13.50;99.90;;;;;;4949835;28;20416;-35
2023/06/05 06:37:23;;;;;;;7.90;2.92;;;13.60;99.90;;;;;;4951524;28;20054;-35
2023/06/05 06:39:49;;;;;;;5.22;2.17;;;13.70;99.90;;;;;;4933573;28;20055;-35
2023/06/05 06:42:15;;;;;;;5.18;2.38;;;13.70;99.90;;;;;;4952297;28;20619;-35
2023/06/05 06:44:40;;;;;;;4.45;2.63;;;13.80;99.90;;;;;;4953521;28;20059;-34
2023/06/05 06:47:08;;;;;;;4.15;2.45;;;13.90;99.90;;;;;;4950906;28;20066;-35
2023/06/05 06:49:36;;;;;;;6.05;2.40;;;14.00;99.90;;;;;;4956521;28;20078;-35
2023/06/05 06:52:02;;;;;;;3.80;1.95;;;14.00;99.90;;;;;;4957767;28;20051;-35
2023/06/05 06:54:28;;;;;;;6.13;2.72;;;14.10;99.90;;;;;;4966410;28;20058;-35
2023/06/05 06:56:57;;;;;;;4.35;2.10;;;14.20;99.90;;;;;;4959734;28;20121;-35
2023/06/05 06:59:23;;;;;;;5.50;2.50;;;14.20;99.90;;;;;;4952788;28;20093;-35
2023/06/05 07:02:10;;;;;;;5.30;2.80;;;14.40;99.90;;;;;;4959966;28;20177;-35
2023/06/05 07:04:36;;;;;;;5.18;2.42;;;14.50;99.90;;;;;;4963552;28;20527;-35
2023/06/05 07:07:02;;;;;;;5.90;2.30;;;14.60;99.90;;;;;;4932163;28;20053;-35
2023/06/05 07:09:28;;;;;;;6.93;2.15;;;14.60;99.90;;;;;;4956844;28;20165;-35
2023/06/05 07:11:54;;;;;;;7.07;2.60;;;14.70;99.90;;;;;;4954650;28;20481;-35
2023/06/05 07:14:20;;;;;;;3.58;2.00;;;14.80;99.90;;;;;;4953387;28;20046;-35
2023/06/05 07:16:46;;;;;;;4.82;2.05;;;14.90;99.90;;;;;;4954440;28;20186;-35
2023/06/05 07:19:13;;;;;;;3.72;1.88;;;15.00;99.90;;;;;;4956830;28;20058;-35
2023/06/05 07:21:39;;;;;;;5.55;2.70;;;15.10;99.90;;;;;;4956409;28;20051;-35
2023/06/05 07:24:06;;;;;;;5.00;2.38;;;15.20;99.90;;;;;;4953550;28;20054;-35
2023/06/05 07:26:32;;;;;;;4.63;2.17;;;15.30;99.90;;;;;;4953604;28;20079;-35
2023/06/05 07:28:57;;;;;;;4.00;2.25;;;15.30;99.90;;;;;;4954599;28;20149;-35
2023/06/05 07:31:23;;;;;;;3.28;1.80;;;15.30;99.90;;;;;;4960062;28;20531;-35
2023/06/05 07:33:49;;;;;;;7.00;2.30;;;15.40;99.90;;;;;;4952985;28;20391;-35
2023/06/05 07:36:15;;;;;;;3.67;2.15;;;15.50;99.90;;;;;;4934180;28;20058;-35
2023/06/05 07:38:40;;;;;;;4.40;1.80;;;15.60;99.90;;;;;;4955836;28;20465;-35
2023/06/05 07:41:08;;;;;;;3.72;1.90;;;15.70;99.90;;;;;;4951160;28;20437;-35
2023/06/05 07:43:34;;;;;;;3.70;2.08;;;15.90;99.90;;;;;;4951602;28;20073;-35
2023/06/05 07:46:00;;;;;;;3.47;1.52;;;16.00;99.90;;;;;;4955076;28;20186;-35
2023/06/05 07:48:26;;;;;;;3.53;2.10;;;16.00;99.90;;;;;;4952328;28;20106;-35
2023/06/05 07:50:51;;;;;;;3.63;1.98;;;16.10;99.90;;;;;;4952944;28;20051;-34
2023/06/05 07:53:17;;;;;;;4.75;2.03;;;16.20;99.90;;;;;;4956999;28;20061;-35
2023/06/05 07:55:43;;;;;;;3.78;1.80;;;16.20;99.90;;;;;;4958920;28;20485;-35
2023/06/05 07:58:08;;;;;;;6.00;2.45;;;16.30;99.90;;;;;;4950631;28;20077;-34
2023/06/05 08:00:34;;;;;;;4.35;2.25;;;16.30;99.90;;;;;;4956088;28;20515;-35
2023/06/05 08:03:00;;;;;;;4.53;1.80;;;16.40;99.90;;;;;;4955105;28;20085;-35
2023/06/05 08:05:26;;;;;;;3.10;1.73;;;16.50;99.90;;;;;;4957381;28;20069;-35
2023/06/05 08:07:51;;;;;;;3.80;1.92;;;16.50;99.90;;;;;;4955402;28;20504;-35
2023/06/05 08:10:17;;;;;;;4.47;2.40;;;16.60;99.90;;;;;;4954497;28;20154;-35
2023/06/05 08:12:43;;;;;;;3.65;2.00;;;16.50;99.90;;;;;;4959828;28;20054;-35
2023/06/05 08:15:09;;;;;;;3.42;2.10;;;16.50;99.90;;;;;;4957103;28;20094;-35
2023/06/05 08:17:34;;;;;;;6.32;1.83;;;16.60;99.90;;;;;;4953379;28;20182;-35
2023/06/05 08:20:00;;;;;;;3.15;1.80;;;16.60;99.90;;;;;;4937096;28;20118;-35
2023/06/05 08:22:26;;;;;;;2.80;1.85;;;16.70;99.90;;;;;;4956296;28;20047;-35
2023/06/05 08:24:54;;;;;;;6.07;2.40;;;16.90;99.90;;;;;;4954216;28;20156;-35
2023/06/05 08:27:19;;;;;;;5.20;1.85;;;16.90;99.90;;;;;;4950756;28;20401;-35
2023/06/05 08:29:45;;;;;;;2.95;2.00;;;16.90;99.90;;;;;;4948526;28;20070;-34
2023/06/05 08:32:11;;;;;;;3.72;2.03;;;16.90;99.90;;;;;;4952622;28;20080;-35
2023/06/05 08:34:36;;;;;;;3.45;1.77;;;17.00;99.90;;;;;;4952415;28;20061;-35
2023/06/05 08:37:02;;;;;;;3.80;1.80;;;17.10;99.90;;;;;;4948807;28;20141;-35
2023/06/05 08:39:31;;;;;;;3.05;1.48;;;17.20;99.90;;;;;;4952244;28;20070;-34
2023/06/05 08:42:02;;;;;;;2.83;1.63;;;17.30;99.90;;;;;;4954244;28;20574;-35
2023/06/05 08:44:29;;;;;;;4.65;2.25;;;17.50;99.90;;;;;;4951270;28;20567;-35
2023/06/05 08:47:02;;;;;;;3.42;1.63;;;17.50;99.90;;;;;;4938376;28;20077;-35
2023/06/05 08:49:29;;;;;;;4.10;1.65;;;17.60;99.90;;;;;;4951215;28;20063;-35
2023/06/05 08:52:02;;;;;;;4.50;1.98;;;17.70;99.90;;;;;;4953273;28;20398;-35
2023/06/05 08:54:35;;;;;;;4.05;2.35;;;17.80;99.90;;;;;;4953907;28;20077;-35
2023/06/05 08:57:02;;;;;;;;;;;17.90;99.90;;;;;;4951924;28;20412;-35
2023/06/05 08:59:29;;;;;;;1.80;1.20;;;17.90;99.90;;;;;;4955322;28;19972;-35
2023/06/05 09:01:56;;;;;;;4.65;1.60;;;17.90;99.90;;;;;;4953441;28;20059;-35
2023/06/05 09:04:21;;;;;;;3.75;1.10;;;18.00;99.90;;;;;;4952656;28;20137;-35
2023/06/05 09:06:47;;;;;;;2.90;1.35;;;18.00;99.90;;;;;;4953678;28;20400;-35
2023/06/05 09:09:15;;;;;;;2.85;1.02;;;18.10;99.90;;;;;;4933973;28;20063;-35
2023/06/05 09:11:41;;;;;;;2.88;1.23;;;18.20;99.90;;;;;;4955355;28;20492;-35
2023/06/05 09:14:06;;;;;;;6.13;1.52;;;18.20;99.90;;;;;;4951961;28;21370;-35
2023/06/05 09:16:37;;;;;;;3.08;1.50;;;18.30;99.90;;;;;;4951845;28;20055;-35
2023/06/05 09:19:04;;;;;;;5.78;1.50;;;18.40;99.90;;;;;;4954016;28;20051;-35
2023/06/05 09:21:31;;;;;;;4.93;1.50;;;18.50;99.90;;;;;;4951467;28;20062;-35
2023/06/05 09:24:07;;;;;;;3.05;1.30;;;18.70;99.90;;;;;;4953588;28;20500;-35
2023/06/05 09:27:02;;;;;;;2.40;1.17;;;18.80;99.90;;;;;;4952338;28;20114;-35
2023/06/05 09:29:30;;;;;;;2.03;1.20;;;19.00;99.90;;;;;;4951891;28;20055;-35
2023/06/05 09:31:58;;;;;;;2.33;1.30;;;19.20;99.90;;;;;;4960737;28;20042;-35
2023/06/05 09:34:29;;;;;;;3.70;1.50;;;19.30;99.90;;;;;;4964755;28;20524;-35
2023/06/05 09:36:59;;;;;;;4.82;1.42;;;19.40;99.90;;;;;;4966110;28;20046;-35
2023/06/05 09:39:27;;;;;;;6.72;1.20;;;19.40;99.90;;;;;;4961488;28;20504;-35
2023/06/05 09:41:54;;;;;;;2.10;1.10;;;19.50;99.90;;;;;;4932175;28;20054;-35
2023/06/05 09:44:21;;;;;;;3.53;1.30;;;19.70;99.90;;;;;;4951269;28;20505;-35
2023/06/05 09:46:57;;;;;;;1.67;0.90;;;19.80;99.90;;;;;;4955255;28;20060;-35
2023/06/05 09:49:49;;;;;;;2.00;1.13;;;19.80;99.90;;;;;;4949987;28;20070;-35
2023/06/05 09:52:16;;;;;;;3.20;1.55;;;19.80;99.90;;;;;;4948882;28;20485;-35
2023/06/05 09:54:44;;;;;;;2.03;0.95;;;19.80;99.90;;;;;;4950990;28;20077;-35
2023/06/05 09:57:12;;;;;;;2.42;1.30;;;19.80;99.90;;;;;;4950704;28;20056;-35
2023/06/05 09:59:50;;;;;;;2.45;1.33;;;19.80;99.90;;;;;;4953415;28;20145;-35
2023/06/05 10:02:17;;;;;;;2.30;1.08;;;19.90;99.90;;;;;;4945444;28;20047;-35
2023/06/05 10:04:47;;;;;;;2.70;0.95;;;20.00;99.90;;;;;;4937199;28;20158;-35
2023/06/05 10:07:14;;;;;;;3.33;1.17;;;20.10;99.90;;;;;;4931755;28;20081;-35
2023/06/05 10:09:41;;;;;;;2.20;1.20;;;20.20;99.90;;;;;;4918815;28;20303;-35
2023/06/05 10:12:08;;;;;;;2.25;1.10;;;20.40;99.90;;;;;;4919163;29;20493;-34
2023/06/05 10:14:40;;;;;;;2.70;1.15;;;20.60;99.90;;;;;;4934766;28;20055;-34
2023/06/05 10:17:06;;;;;;;;;;;20.70;99.90;;;;;;4934170;28;20509;-34
2023/06/05 10:19:32;;;;;;;1.75;1.05;;;20.70;99.90;;;;;;4932100;28;19973;-34
2023/06/05 10:21:59;;;;;;;2.42;1.20;;;20.80;99.90;;;;;;4932066;28;20138;-34
2023/06/05 10:24:32;;;;;;;2.20;1.15;;;20.80;99.90;;;;;;4932723;28;20489;-34
2023/06/05 10:27:10;;;;;;;3.63;1.42;;;20.90;99.90;;;;;;4934172;28;20500;-34
2023/06/05 10:29:54;;;;;;;2.45;1.10;;;20.90;99.90;;;;;;4934116;28;20512;-34
2023/06/05 10:32:28;;;;;;;1.90;1.02;;;21.00;99.90;;;;;;4937658;28;20074;-34
2023/06/05 10:35:16;;;;;;;3.65;1.20;;;21.30;99.90;;;;;;4938124;28;20055;-34
2023/06/05 10:37:56;;;;;;;3.13;1.20;;;21.40;99.90;;;;;;4938498;28;20059;-34
2023/06/05 10:40:23;;;;;;;2.00;0.88;;;21.60;99.90;;;;;;4935122;28;20058;-34
2023/06/05 10:42:49;;;;;;;2.65;1.20;;;21.70;99.90;;;;;;4945266;28;20047;-34
2023/06/05 10:45:32;;;;;;;3.17;1.25;;;21.80;99.90;;;;;;4940081;28;20095;-34
2023/06/05 10:47:58;;;;;;;2.38;1.35;;;21.80;99.90;;;;;;4943317;28;20061;-34
2023/06/05 10:50:26;;;;;;;2.05;1.00;;;21.80;99.90;;;;;;4944349;28;20067;-34
2023/06/05 10:52:54;;;;;;;4.13;1.27;;;21.80;99.90;;;;;;4945254;28;20059;-34
2023/06/05 10:55:21;;;;;;;1.73;1.00;;;21.80;99.90;;;;;;4942113;28;20062;-34
2023/06/05 10:57:56;;;;;;;2.25;1.20;;;21.90;99.90;;;;;;4939327;28;20062;-34
2023/06/05 11:00:22;;;;;;;2.65;1.30;;;21.90;99.90;;;;;;4937106;28;20078;-34
2023/06/05 11:02:48;;;;;;;2.05;0.95;;;22.00;99.90;;;;;;4941751;28;20493;-34
2023/06/05 11:05:14;;;;;;;1.83;1.17;;;22.00;99.90;;;;;;4956464;28;20069;-34
2023/06/05 11:07:42;;;;;;;5.70;2.00;;;22.20;99.90;;;;;;4942711;28;20465;-34
2023/06/05 11:10:23;;;;;;;2.80;1.02;;;22.40;99.90;;;;;;4958287;28;20071;-34
2023/06/05 11:12:51;;;;;;;1.90;1.08;;;22.40;99.90;;;;;;4955431;28;20051;-34
2023/06/05 11:15:37;;;;;;;2.58;1.20;;;22.50;99.90;;;;;;4961227;28;20098;-34
2023/06/05 11:18:28;;;;;;;2.53;1.40;;;22.60;99.90;;;;;;4966954;28;20055;-34
2023/06/05 11:20:56;;;;;;;3.17;1.10;;;22.60;99.90;;;;;;4959958;28;20396;-34
2023/06/05 11:23:27;;;;;;;1.80;1.05;;;22.70;99.90;;;;;;4958187;28;20043;-34
2023/06/05 11:25:56;;;;;;;2.70;1.38;;;22.80;99.90;;;;;;4960076;28;20055;-34
2023/06/05 11:28:39;;;;;;;2.10;1.10;;;22.90;99.90;;;;;;4961981;28;20110;-34
2023/06/05 11:31:04;;;;;;;4.13;1.30;;;22.90;99.90;;;;;;4957844;28;20086;-34
2023/06/05 11:33:30;;;;;;;1.77;1.00;;;22.90;99.90;;;;;;4960676;28;20055;-34
2023/06/05 11:36:01;;;;;;;2.35;1.20;;;23.00;99.90;;;;;;4955711;28;20051;-34
2023/06/05 11:38:26;;;;;;;2.42;0.90;;;23.10;99.90;;;;;;4959334;28;20501;-34
2023/06/05 11:40:54;;;;;;;1.80;0.93;;;23.30;99.90;;;;;;4963335;28;20081;-34
2023/06/05 11:43:21;;;;;;;2.42;1.40;;;23.40;99.90;;;;;;4962217;28;20842;-34
2023/06/05 11:45:51;;;;;;;3.83;1.40;;;23.30;99.90;;;;;;4963624;28;20046;-34
2023/06/05 11:48:17;;;;;;;2.70;1.00;;;23.20;99.90;;;;;;4964642;28;20199;-34
2023/06/05 11:50:55;;;;;;;2.78;1.10;;;23.20;99.90;;;;;;4960989;28;20078;-34
2023/06/05 11:53:21;;;;;;;3.15;1.30;;;23.20;99.90;;;;;;4965134;28;20142;-34
2023/06/05 11:58:26;;;;;;;3.10;1.30;;;23.50;99.90;;;;;;4960757;28;20093;-34
2023/06/05 12:01:03;;;;;;;3.92;1.23;;;23.70;99.90;;;;;;4965724;28;20588;-34
2023/06/05 12:03:28;;;;;;;2.55;1.17;;;23.90;99.90;;;;;;4967286;28;20142;-34
2023/06/05 12:05:54;;;;;;;2.25;1.33;;;24.00;99.90;;;;;;4954901;28;20130;-34
2023/06/05 12:08:27;;;;;;;3.22;1.23;;;24.00;99.90;;;;;;4952160;28;20152;-34
2023/06/05 12:10:53;;;;;;;2.53;1.17;;;24.00;99.90;;;;;;4954770;28;20101;-34
2023/06/05 12:13:19;;;;;;;2.65;1.00;;;24.20;99.90;;;;;;4952686;28;20061;-34
2023/06/05 12:15:58;;;;;;;1.80;1.10;;;24.20;99.90;;;;;;4950642;28;20051;-34
2023/06/05 12:18:33;;;;;;;3.28;1.08;;;24.30;99.90;;;;;;4953354;28;20063;-34
2023/06/05 12:21:02;;;;;;;6.30;1.35;;;24.40;99.90;;;;;;4952719;28;20433;-34
2023/06/05 12:23:32;;;;;;;2.97;1.30;;;24.40;99.90;;;;;;4953567;28;20416;-34
2023/06/05 12:26:03;;;;;;;3.22;1.27;;;24.40;99.90;;;;;;4952495;28;20062;-34
2023/06/05 12:28:29;;;;;;;3.55;1.38;;;24.50;99.90;;;;;;4952467;28;20661;-34
2023/06/05 12:30:55;;;;;;;2.85;1.30;;;24.60;99.90;;;;;;4952425;28;20154;-34
2023/06/05 12:33:25;;;;;;;3.13;1.45;;;24.70;99.90;;;;;;4957771;28;20126;-34
2023/06/05 12:36:04;;;;;;;2.75;1.30;;;24.70;99.90;;;;;;4956560;28;20514;-34
2023/06/05 12:38:29;;;;;;;4.88;1.10;;;24.80;99.90;;;;;;4952317;28;20051;-34
2023/06/05 12:40:55;;;;;;;1.65;1.10;;;24.90;99.90;;;;;;4954792;28;20058;-34
2023/06/05 12:43:21;;;;;;;3.42;1.45;;;25.00;99.90;;;;;;4935739;28;20599;-34
2023/06/05 12:45:46;;;;;;;4.72;1.30;;;25.20;99.90;;;;;;4953515;28;20061;-34
2023/06/05 12:48:12;;;;;;;4.40;1.48;;;25.20;99.90;;;;;;4952499;28;20051;-34
2023/06/05 12:50:41;;;;;;;2.08;1.30;;;25.20;99.90;;;;;;4954771;28;20055;-34
2023/06/05 12:53:10;;;;;;;3.05;1.40;;;25.20;99.90;;;;;;4962761;28;20057;-34
2023/06/05 12:55:35;;;;;;;2.33;1.25;;;25.40;99.90;;;;;;4945670;28;20097;-34